sensor_id;sensor_type;location;lat;lon;timestamp;P1;durP1;ratioP1;P2;durP2;ratioP2
21777;SDS011;11050;52.222;20.916;2023-02-15T00:01:46;52.93;;;25.93;;
21777;SDS011;11050;52.222;20.916;2023-02-15T00:04:13;54.70;;;29.03;;
21777;SDS011;11050;52.222;20.916;2023-02-15T00:06:42;56.23;;;28.90;;
21777;SDS011;11050;52.222;20.916;2023-02-15T00:09:11;57.67;;;30.13;;
21777;SDS011;11050;52.222;20.916;2023-02-15T00:11:37;56.20;;;29.80;;
21777;SDS011;11050;52.222;20.916;2023-02-15T00:14:19;49.50;;;24.63;;
21777;SDS011;11050;52.222;20.916;2023-02-15T00:16:49;56.17;;;29.00;;
21777;SDS011;11050;52.222;20.916;2023-02-15T00:19:18;56.30;;;28.90;;
21777;SDS011;11050;52.222;20.916;2023-02-15T00:21:45;52.57;;;28.00;;
21777;SDS011;11050;52.222;20.916;2023-02-15T00:24:13;57.27;;;28.50;;
21777;SDS011;11050;52.222;20.916;2023-02-15T00:26:41;54.07;;;28.43;;
21777;SDS011;11050;52.222;20.916;2023-02-15T00:29:09;54.83;;;27.97;;
21777;SDS011;11050;52.222;20.916;2023-02-15T00:31:36;55.43;;;28.77;;
21777;SDS011;11050;52.222;20.916;2023-02-15T00:34:03;56.83;;;28.73;;
21777;SDS011;11050;52.222;20.916;2023-02-15T00:36:31;54.83;;;29.60;;
21777;SDS011;11050;52.222;20.916;2023-02-15T00:38:57;56.47;;;28.20;;
21777;SDS011;11050;52.222;20.916;2023-02-15T00:41:23;57.30;;;27.80;;
21777;SDS011;11050;52.222;20.916;2023-02-15T00:43:49;57.27;;;30.17;;
21777;SDS011;11050;52.222;20.916;2023-02-15T00:46:15;58.27;;;30.23;;
21777;SDS011;11050;52.222;20.916;2023-02-15T00:48:41;63.73;;;30.30;;
21777;SDS011;11050;52.222;20.916;2023-02-15T00:51:06;58.03;;;28.87;;
21777;SDS011;11050;52.222;20.916;2023-02-15T00:53:32;61.37;;;30.77;;
21777;SDS011;11050;52.222;20.916;2023-02-15T00:55:58;59.90;;;31.80;;
21777;SDS011;11050;52.222;20.916;2023-02-15T00:58:24;60.57;;;29.87;;
21777;SDS011;11050;52.222;20.916;2023-02-15T01:00:51;66.37;;;31.03;;
21777;SDS011;11050;52.222;20.916;2023-02-15T01:03:17;56.73;;;29.53;;
21777;SDS011;11050;52.222;20.916;2023-02-15T01:05:46;59.27;;;30.03;;
21777;SDS011;11050;52.222;20.916;2023-02-15T01:08:13;59.53;;;30.53;;
21777;SDS011;11050;52.222;20.916;2023-02-15T01:10:40;57.93;;;29.97;;
21777;SDS011;11050;52.222;20.916;2023-02-15T01:13:05;59.27;;;29.77;;
21777;SDS011;11050;52.222;20.916;2023-02-15T01:15:33;64.40;;;32.70;;
21777;SDS011;11050;52.222;20.916;2023-02-15T01:18:00;60.80;;;30.60;;
21777;SDS011;11050;52.222;20.916;2023-02-15T01:20:27;62.90;;;30.40;;
21777;SDS011;11050;52.222;20.916;2023-02-15T01:22:54;64.33;;;29.93;;
21777;SDS011;11050;52.222;20.916;2023-02-15T01:25:22;62.50;;;30.87;;
21777;SDS011;11050;52.222;20.916;2023-02-15T01:27:49;59.60;;;30.07;;
21777;SDS011;11050;52.222;20.916;2023-02-15T01:30:15;62.27;;;30.37;;
21777;SDS011;11050;52.222;20.916;2023-02-15T01:32:41;58.70;;;30.70;;
21777;SDS011;11050;52.222;20.916;2023-02-15T01:35:08;60.77;;;29.70;;
21777;SDS011;11050;52.222;20.916;2023-02-15T01:37:35;62.50;;;29.83;;
21777;SDS011;11050;52.222;20.916;2023-02-15T01:40:02;58.70;;;30.43;;
21777;SDS011;11050;52.222;20.916;2023-02-15T01:42:31;61.47;;;31.97;;
21777;SDS011;11050;52.222;20.916;2023-02-15T01:44:58;57.87;;;29.13;;
21777;SDS011;11050;52.222;20.916;2023-02-15T01:47:40;62.67;;;29.70;;
21777;SDS011;11050;52.222;20.916;2023-02-15T01:52:58;57.27;;;28.03;;
21777;SDS011;11050;52.222;20.916;2023-02-15T01:55:29;65.87;;;30.90;;
21777;SDS011;11050;52.222;20.916;2023-02-15T01:58:01;53.80;;;28.23;;
21777;SDS011;11050;52.222;20.916;2023-02-15T02:00:27;53.30;;;28.10;;
21777;SDS011;11050;52.222;20.916;2023-02-15T02:02:54;54.17;;;27.33;;
21777;SDS011;11050;52.222;20.916;2023-02-15T02:05:22;59.07;;;29.03;;
21777;SDS011;11050;52.222;20.916;2023-02-15T02:07:48;55.03;;;28.13;;
21777;SDS011;11050;52.222;20.916;2023-02-15T02:10:20;52.43;;;27.60;;
21777;SDS011;11050;52.222;20.916;2023-02-15T02:12:50;55.13;;;27.87;;
21777;SDS011;11050;52.222;20.916;2023-02-15T02:15:30;60.33;;;28.80;;
21777;SDS011;11050;52.222;20.916;2023-02-15T02:18:35;53.27;;;27.97;;
21777;SDS011;11050;52.222;20.916;2023-02-15T02:21:40;62.63;;;30.00;;
21777;SDS011;11050;52.222;20.916;2023-02-15T02:45:06;54.83;;;26.10;;
21777;SDS011;11050;52.222;20.916;2023-02-15T02:47:49;49.30;;;25.17;;
21777;SDS011;11050;52.222;20.916;2023-02-15T02:50:29;47.30;;;23.80;;
21777;SDS011;11050;52.222;20.916;2023-02-15T02:52:56;56.63;;;26.40;;
21777;SDS011;11050;52.222;20.916;2023-02-15T02:56:06;54.10;;;26.70;;
21777;SDS011;11050;52.222;20.916;2023-02-15T03:03:47;55.23;;;26.90;;
21777;SDS011;11050;52.222;20.916;2023-02-15T03:06:20;61.00;;;27.47;;
21777;SDS011;11050;52.222;20.916;2023-02-15T03:09:18;59.50;;;26.97;;
21777;SDS011;11050;52.222;20.916;2023-02-15T03:11:59;52.07;;;25.00;;
21777;SDS011;11050;52.222;20.916;2023-02-15T03:14:28;50.90;;;25.57;;
21777;SDS011;11050;52.222;20.916;2023-02-15T03:16:54;52.37;;;26.17;;
21777;SDS011;11050;52.222;20.916;2023-02-15T03:19:22;56.13;;;27.90;;
21777;SDS011;11050;52.222;20.916;2023-02-15T03:22:08;51.63;;;26.10;;
21777;SDS011;11050;52.222;20.916;2023-02-15T03:25:02;60.00;;;28.67;;
21777;SDS011;11050;52.222;20.916;2023-02-15T03:27:38;51.67;;;26.30;;
21777;SDS011;11050;52.222;20.916;2023-02-15T03:30:10;56.40;;;28.30;;
21777;SDS011;11050;52.222;20.916;2023-02-15T03:32:40;61.97;;;27.27;;
21777;SDS011;11050;52.222;20.916;2023-02-15T03:35:08;54.70;;;27.57;;
21777;SDS011;11050;52.222;20.916;2023-02-15T03:37:36;55.13;;;26.57;;
21777;SDS011;11050;52.222;20.916;2023-02-15T03:46:24;57.40;;;27.20;;
21777;SDS011;11050;52.222;20.916;2023-02-15T03:49:02;52.80;;;25.37;;
21777;SDS011;11050;52.222;20.916;2023-02-15T03:51:37;54.50;;;25.90;;
21777;SDS011;11050;52.222;20.916;2023-02-15T03:54:08;55.00;;;27.07;;
21777;SDS011;11050;52.222;20.916;2023-02-15T03:56:40;52.90;;;27.43;;
21777;SDS011;11050;52.222;20.916;2023-02-15T03:59:27;50.60;;;24.27;;
21777;SDS011;11050;52.222;20.916;2023-02-15T04:02:15;42.67;;;22.63;;
21777;SDS011;11050;52.222;20.916;2023-02-15T04:04:49;45.83;;;22.77;;
21777;SDS011;11050;52.222;20.916;2023-02-15T04:07:15;46.40;;;23.63;;
21777;SDS011;11050;52.222;20.916;2023-02-15T04:09:40;46.63;;;22.57;;
21777;SDS011;11050;52.222;20.916;2023-02-15T04:12:24;37.80;;;19.53;;
21777;SDS011;11050;52.222;20.916;2023-02-15T04:14:50;40.33;;;21.23;;
21777;SDS011;11050;52.222;20.916;2023-02-15T04:17:35;42.07;;;21.10;;
21777;SDS011;11050;52.222;20.916;2023-02-15T04:20:02;33.53;;;17.50;;
21777;SDS011;11050;52.222;20.916;2023-02-15T04:22:47;32.60;;;17.70;;
21777;SDS011;11050;52.222;20.916;2023-02-15T04:25:31;35.27;;;18.77;;
21777;SDS011;11050;52.222;20.916;2023-02-15T04:27:57;32.60;;;17.83;;
21777;SDS011;11050;52.222;20.916;2023-02-15T04:30:23;34.70;;;18.80;;
21777;SDS011;11050;52.222;20.916;2023-02-15T04:32:50;34.50;;;19.07;;
21777;SDS011;11050;52.222;20.916;2023-02-15T04:35:16;39.87;;;18.90;;
21777;SDS011;11050;52.222;20.916;2023-02-15T04:37:43;32.97;;;17.97;;
21777;SDS011;11050;52.222;20.916;2023-02-15T04:40:11;36.47;;;20.23;;
21777;SDS011;11050;52.222;20.916;2023-02-15T04:42:39;32.77;;;18.07;;
21777;SDS011;11050;52.222;20.916;2023-02-15T04:45:05;34.90;;;16.93;;
21777;SDS011;11050;52.222;20.916;2023-02-15T04:47:31;32.43;;;16.77;;
21777;SDS011;11050;52.222;20.916;2023-02-15T04:49:57;31.63;;;18.13;;
21777;SDS011;11050;52.222;20.916;2023-02-15T04:52:23;38.43;;;19.43;;
21777;SDS011;11050;52.222;20.916;2023-02-15T04:54:48;37.80;;;20.40;;
21777;SDS011;11050;52.222;20.916;2023-02-15T04:57:14;40.07;;;19.70;;
21777;SDS011;11050;52.222;20.916;2023-02-15T04:59:40;37.57;;;19.07;;
21777;SDS011;11050;52.222;20.916;2023-02-15T05:02:05;36.57;;;19.50;;
21777;SDS011;11050;52.222;20.916;2023-02-15T05:04:32;35.60;;;18.80;;
21777;SDS011;11050;52.222;20.916;2023-02-15T05:06:57;36.43;;;18.27;;
21777;SDS011;11050;52.222;20.916;2023-02-15T05:09:23;36.20;;;17.03;;
21777;SDS011;11050;52.222;20.916;2023-02-15T05:11:49;32.33;;;17.70;;
21777;SDS011;11050;52.222;20.916;2023-02-15T05:14:14;35.17;;;19.07;;
21777;SDS011;11050;52.222;20.916;2023-02-15T05:16:40;34.37;;;17.73;;
21777;SDS011;11050;52.222;20.916;2023-02-15T05:19:06;40.63;;;19.27;;
21777;SDS011;11050;52.222;20.916;2023-02-15T05:21:32;35.53;;;18.50;;
21777;SDS011;11050;52.222;20.916;2023-02-15T05:23:58;37.03;;;19.57;;
21777;SDS011;11050;52.222;20.916;2023-02-15T05:26:24;34.87;;;19.17;;
21777;SDS011;11050;52.222;20.916;2023-02-15T05:29:09;40.07;;;20.37;;
21777;SDS011;11050;52.222;20.916;2023-02-15T05:31:35;38.33;;;20.07;;
21777;SDS011;11050;52.222;20.916;2023-02-15T05:34:02;33.00;;;17.47;;
21777;SDS011;11050;52.222;20.916;2023-02-15T05:36:28;36.03;;;18.27;;
21777;SDS011;11050;52.222;20.916;2023-02-15T05:38:54;33.97;;;18.73;;
21777;SDS011;11050;52.222;20.916;2023-02-15T05:41:20;36.50;;;19.77;;
21777;SDS011;11050;52.222;20.916;2023-02-15T05:43:45;35.70;;;18.40;;
21777;SDS011;11050;52.222;20.916;2023-02-15T05:46:12;35.83;;;18.43;;
21777;SDS011;11050;52.222;20.916;2023-02-15T05:48:38;39.00;;;19.50;;
21777;SDS011;11050;52.222;20.916;2023-02-15T05:51:05;36.10;;;18.60;;
21777;SDS011;11050;52.222;20.916;2023-02-15T05:53:34;34.63;;;17.10;;
21777;SDS011;11050;52.222;20.916;2023-02-15T05:56:03;32.63;;;17.13;;
21777;SDS011;11050;52.222;20.916;2023-02-15T05:58:34;36.63;;;18.53;;
21777;SDS011;11050;52.222;20.916;2023-02-15T06:01:16;35.13;;;19.53;;
21777;SDS011;11050;52.222;20.916;2023-02-15T06:03:43;38.63;;;19.57;;
21777;SDS011;11050;52.222;20.916;2023-02-15T06:06:10;35.80;;;20.30;;
21777;SDS011;11050;52.222;20.916;2023-02-15T06:08:36;32.70;;;18.17;;
21777;SDS011;11050;52.222;20.916;2023-02-15T06:11:03;36.30;;;19.70;;
21777;SDS011;11050;52.222;20.916;2023-02-15T06:13:30;39.98;;;19.00;;
21777;SDS011;11050;52.222;20.916;2023-02-15T06:15:57;32.47;;;16.73;;
21777;SDS011;11050;52.222;20.916;2023-02-15T06:18:24;38.30;;;18.97;;
21777;SDS011;11050;52.222;20.916;2023-02-15T06:20:49;38.03;;;19.73;;
21777;SDS011;11050;52.222;20.916;2023-02-15T06:23:15;35.00;;;18.70;;
21777;SDS011;11050;52.222;20.916;2023-02-15T06:25:41;31.87;;;16.67;;
21777;SDS011;11050;52.222;20.916;2023-02-15T06:28:09;35.97;;;19.33;;
21777;SDS011;11050;52.222;20.916;2023-02-15T06:30:35;39.57;;;19.93;;
21777;SDS011;11050;52.222;20.916;2023-02-15T06:33:01;39.23;;;20.10;;
21777;SDS011;11050;52.222;20.916;2023-02-15T06:35:26;36.10;;;19.33;;
21777;SDS011;11050;52.222;20.916;2023-02-15T06:37:52;47.67;;;23.07;;
21777;SDS011;11050;52.222;20.916;2023-02-15T06:40:18;34.77;;;19.63;;
21777;SDS011;11050;52.222;20.916;2023-02-15T06:42:44;32.87;;;17.90;;
21777;SDS011;11050;52.222;20.916;2023-02-15T06:45:10;35.93;;;18.47;;
21777;SDS011;11050;52.222;20.916;2023-02-15T06:47:36;33.37;;;17.87;;
21777;SDS011;11050;52.222;20.916;2023-02-15T06:50:03;32.63;;;17.37;;
21777;SDS011;11050;52.222;20.916;2023-02-15T06:52:30;35.23;;;19.20;;
21777;SDS011;11050;52.222;20.916;2023-02-15T06:54:56;34.63;;;17.77;;
21777;SDS011;11050;52.222;20.916;2023-02-15T06:57:22;29.20;;;16.43;;
21777;SDS011;11050;52.222;20.916;2023-02-15T06:59:47;31.30;;;15.53;;
21777;SDS011;11050;52.222;20.916;2023-02-15T07:02:13;37.07;;;16.83;;
21777;SDS011;11050;52.222;20.916;2023-02-15T07:04:39;37.40;;;20.03;;
21777;SDS011;11050;52.222;20.916;2023-02-15T07:07:07;36.70;;;18.13;;
21777;SDS011;11050;52.222;20.916;2023-02-15T07:09:35;36.97;;;18.57;;
21777;SDS011;11050;52.222;20.916;2023-02-15T07:12:01;41.37;;;19.17;;
21777;SDS011;11050;52.222;20.916;2023-02-15T07:14:46;40.37;;;19.07;;
21777;SDS011;11050;52.222;20.916;2023-02-15T07:17:12;35.30;;;18.27;;
21777;SDS011;11050;52.222;20.916;2023-02-15T07:19:38;40.00;;;21.83;;
21777;SDS011;11050;52.222;20.916;2023-02-15T07:22:03;39.37;;;20.80;;
21777;SDS011;11050;52.222;20.916;2023-02-15T07:24:29;33.97;;;18.53;;
21777;SDS011;11050;52.222;20.916;2023-02-15T07:26:56;39.40;;;19.83;;
21777;SDS011;11050;52.222;20.916;2023-02-15T07:29:22;38.67;;;19.90;;
21777;SDS011;11050;52.222;20.916;2023-02-15T07:31:48;38.13;;;18.73;;
21777;SDS011;11050;52.222;20.916;2023-02-15T07:34:14;34.80;;;18.67;;
21777;SDS011;11050;52.222;20.916;2023-02-15T07:36:40;39.07;;;19.57;;
21777;SDS011;11050;52.222;20.916;2023-02-15T07:39:08;38.47;;;18.47;;
21777;SDS011;11050;52.222;20.916;2023-02-15T07:41:35;41.93;;;21.47;;
21777;SDS011;11050;52.222;20.916;2023-02-15T07:44:00;43.97;;;21.70;;
21777;SDS011;11050;52.222;20.916;2023-02-15T07:46:26;42.87;;;22.43;;
21777;SDS011;11050;52.222;20.916;2023-02-15T07:48:52;44.40;;;22.27;;
21777;SDS011;11050;52.222;20.916;2023-02-15T07:51:18;43.10;;;22.07;;
21777;SDS011;11050;52.222;20.916;2023-02-15T07:53:44;49.00;;;21.17;;
21777;SDS011;11050;52.222;20.916;2023-02-15T07:56:11;45.90;;;23.03;;
21777;SDS011;11050;52.222;20.916;2023-02-15T07:58:38;48.13;;;22.70;;
21777;SDS011;11050;52.222;20.916;2023-02-15T08:01:16;49.93;;;22.60;;
21777;SDS011;11050;52.222;20.916;2023-02-15T08:03:48;47.43;;;22.30;;
21777;SDS011;11050;52.222;20.916;2023-02-15T08:06:15;50.67;;;20.90;;
21777;SDS011;11050;52.222;20.916;2023-02-15T08:08:41;41.57;;;20.53;;
21777;SDS011;11050;52.222;20.916;2023-02-15T08:13:58;38.83;;;18.43;;
21777;SDS011;11050;52.222;20.916;2023-02-15T08:19:03;40.30;;;19.40;;
21777;SDS011;11050;52.222;20.916;2023-02-15T08:21:38;42.40;;;19.67;;
21777;SDS011;11050;52.222;20.916;2023-02-15T08:24:07;41.83;;;19.97;;
21777;SDS011;11050;52.222;20.916;2023-02-15T08:26:35;44.17;;;20.70;;
21777;SDS011;11050;52.222;20.916;2023-02-15T08:29:03;37.17;;;18.50;;
21777;SDS011;11050;52.222;20.916;2023-02-15T08:31:31;36.03;;;16.77;;
21777;SDS011;11050;52.222;20.916;2023-02-15T08:33:58;38.20;;;18.40;;
21777;SDS011;11050;52.222;20.916;2023-02-15T08:36:25;36.10;;;18.83;;
21777;SDS011;11050;52.222;20.916;2023-02-15T08:38:54;38.50;;;18.27;;
21777;SDS011;11050;52.222;20.916;2023-02-15T08:41:24;38.70;;;18.40;;
21777;SDS011;11050;52.222;20.916;2023-02-15T08:43:53;35.27;;;17.07;;
21777;SDS011;11050;52.222;20.916;2023-02-15T08:46:21;32.57;;;16.17;;
21777;SDS011;11050;52.222;20.916;2023-02-15T08:48:50;35.53;;;16.27;;
21777;SDS011;11050;52.222;20.916;2023-02-15T08:51:20;31.30;;;14.97;;
21777;SDS011;11050;52.222;20.916;2023-02-15T08:53:53;30.93;;;15.47;;
21777;SDS011;11050;52.222;20.916;2023-02-15T08:56:23;31.43;;;15.90;;
21777;SDS011;11050;52.222;20.916;2023-02-15T08:58:52;26.30;;;13.77;;
21777;SDS011;11050;52.222;20.916;2023-02-15T09:01:21;33.20;;;15.63;;
21777;SDS011;11050;52.222;20.916;2023-02-15T09:03:50;35.90;;;16.30;;
21777;SDS011;11050;52.222;20.916;2023-02-15T09:06:21;30.03;;;15.27;;
21777;SDS011;11050;52.222;20.916;2023-02-15T09:08:48;30.00;;;14.63;;
21777;SDS011;11050;52.222;20.916;2023-02-15T09:11:19;32.13;;;15.27;;
21777;SDS011;11050;52.222;20.916;2023-02-15T09:13:56;34.23;;;15.43;;
21777;SDS011;11050;52.222;20.916;2023-02-15T09:16:25;31.63;;;15.50;;
21777;SDS011;11050;52.222;20.916;2023-02-15T09:18:54;33.60;;;16.10;;
21777;SDS011;11050;52.222;20.916;2023-02-15T09:21:22;31.30;;;15.37;;
21777;SDS011;11050;52.222;20.916;2023-02-15T09:23:50;32.00;;;14.33;;
21777;SDS011;11050;52.222;20.916;2023-02-15T09:26:22;32.93;;;16.73;;
21777;SDS011;11050;52.222;20.916;2023-02-15T09:28:53;47.73;;;24.17;;
21777;SDS011;11050;52.222;20.916;2023-02-15T09:31:26;29.57;;;14.27;;
21777;SDS011;11050;52.222;20.916;2023-02-15T09:33:55;33.00;;;15.70;;
21777;SDS011;11050;52.222;20.916;2023-02-15T09:36:25;32.43;;;15.13;;
21777;SDS011;11050;52.222;20.916;2023-02-15T09:38:56;35.43;;;16.40;;
21777;SDS011;11050;52.222;20.916;2023-02-15T09:47:43;31.57;;;15.57;;
21777;SDS011;11050;52.222;20.916;2023-02-15T10:10:08;39.37;;;18.93;;
21777;SDS011;11050;52.222;20.916;2023-02-15T10:15:57;37.10;;;17.33;;
21777;SDS011;11050;52.222;20.916;2023-02-15T10:21:33;32.80;;;15.47;;
21777;SDS011;11050;52.222;20.916;2023-02-15T10:27:15;29.63;;;15.33;;
21777;SDS011;11050;52.222;20.916;2023-02-15T10:32:59;35.30;;;18.00;;
21777;SDS011;11050;52.222;20.916;2023-02-15T10:41:53;29.53;;;15.20;;
21777;SDS011;11050;52.222;20.916;2023-02-15T10:50:29;26.73;;;13.33;;
21777;SDS011;11050;52.222;20.916;2023-02-15T11:02:23;32.57;;;17.10;;
21777;SDS011;11050;52.222;20.916;2023-02-15T11:05:31;31.40;;;15.07;;
21777;SDS011;11050;52.222;20.916;2023-02-15T11:08:09;30.93;;;16.03;;
21777;SDS011;11050;52.222;20.916;2023-02-15T11:10:47;31.63;;;15.87;;
21777;SDS011;11050;52.222;20.916;2023-02-15T11:13:20;31.80;;;14.63;;
21777;SDS011;11050;52.222;20.916;2023-02-15T11:18:23;36.37;;;16.17;;
21777;SDS011;11050;52.222;20.916;2023-02-15T11:23:54;32.87;;;15.83;;
21777;SDS011;11050;52.222;20.916;2023-02-15T11:26:24;34.67;;;17.37;;
21777;SDS011;11050;52.222;20.916;2023-02-15T11:28:59;33.17;;;17.23;;
21777;SDS011;11050;52.222;20.916;2023-02-15T11:31:44;34.63;;;17.67;;
21777;SDS011;11050;52.222;20.916;2023-02-15T11:34:38;32.73;;;16.03;;
21777;SDS011;11050;52.222;20.916;2023-02-15T11:37:18;28.87;;;15.27;;
21777;SDS011;11050;52.222;20.916;2023-02-15T11:39:52;34.53;;;17.77;;
21777;SDS011;11050;52.222;20.916;2023-02-15T11:42:20;29.43;;;15.17;;
21777;SDS011;11050;52.222;20.916;2023-02-15T11:47:23;44.17;;;20.10;;
21777;SDS011;11050;52.222;20.916;2023-02-15T11:49:49;36.43;;;18.50;;
21777;SDS011;11050;52.222;20.916;2023-02-15T11:52:15;38.93;;;19.20;;
21777;SDS011;11050;52.222;20.916;2023-02-15T11:54:44;32.17;;;16.67;;
21777;SDS011;11050;52.222;20.916;2023-02-15T11:59:52;36.03;;;17.73;;
21777;SDS011;11050;52.222;20.916;2023-02-15T12:02:28;39.83;;;18.73;;
21777;SDS011;11050;52.222;20.916;2023-02-15T12:05:02;44.43;;;20.03;;
21777;SDS011;11050;52.222;20.916;2023-02-15T12:07:37;38.33;;;19.17;;
21777;SDS011;11050;52.222;20.916;2023-02-15T12:10:22;41.33;;;21.20;;
21777;SDS011;11050;52.222;20.916;2023-02-15T12:13:09;48.70;;;22.70;;
21777;SDS011;11050;52.222;20.916;2023-02-15T12:15:41;42.73;;;21.17;;
21777;SDS011;11050;52.222;20.916;2023-02-15T12:21:07;46.97;;;22.17;;
21777;SDS011;11050;52.222;20.916;2023-02-15T12:26:22;43.70;;;21.87;;
21777;SDS011;11050;52.222;20.916;2023-02-15T12:28:54;48.37;;;23.97;;
21777;SDS011;11050;52.222;20.916;2023-02-15T12:31:47;50.57;;;23.20;;
21777;SDS011;11050;52.222;20.916;2023-02-15T12:36:57;44.97;;;20.30;;
21777;SDS011;11050;52.222;20.916;2023-02-15T12:39:33;45.80;;;21.83;;
21777;SDS011;11050;52.222;20.916;2023-02-15T12:41:59;42.87;;;21.00;;
21777;SDS011;11050;52.222;20.916;2023-02-15T12:44:39;48.80;;;21.33;;
21777;SDS011;11050;52.222;20.916;2023-02-15T12:47:20;50.97;;;22.17;;
21777;SDS011;11050;52.222;20.916;2023-02-15T12:52:47;45.27;;;22.17;;
21777;SDS011;11050;52.222;20.916;2023-02-15T12:55:54;44.73;;;21.10;;
21777;SDS011;11050;52.222;20.916;2023-02-15T12:58:24;49.90;;;23.70;;
21777;SDS011;11050;52.222;20.916;2023-02-15T13:03:51;52.63;;;23.73;;
21777;SDS011;11050;52.222;20.916;2023-02-15T13:06:49;48.03;;;22.43;;
21777;SDS011;11050;52.222;20.916;2023-02-15T13:11:56;46.10;;;21.63;;
21777;SDS011;11050;52.222;20.916;2023-02-15T13:14:51;45.90;;;22.53;;
21777;SDS011;11050;52.222;20.916;2023-02-15T13:17:27;49.60;;;22.70;;
21777;SDS011;11050;52.222;20.916;2023-02-15T13:20:06;47.07;;;21.73;;
21777;SDS011;11050;52.222;20.916;2023-02-15T13:22:44;45.07;;;22.53;;
21777;SDS011;11050;52.222;20.916;2023-02-15T13:27:50;47.43;;;22.53;;
21777;SDS011;11050;52.222;20.916;2023-02-15T13:30:26;50.13;;;22.87;;
21777;SDS011;11050;52.222;20.916;2023-02-15T13:33:02;44.93;;;21.00;;
21777;SDS011;11050;52.222;20.916;2023-02-15T13:35:36;40.77;;;20.83;;
21777;SDS011;11050;52.222;20.916;2023-02-15T13:38:17;43.97;;;22.23;;
21777;SDS011;11050;52.222;20.916;2023-02-15T13:40:55;45.80;;;22.67;;
21777;SDS011;11050;52.222;20.916;2023-02-15T13:52:08;53.97;;;25.03;;
21777;SDS011;11050;52.222;20.916;2023-02-15T14:00:58;57.47;;;24.47;;
21777;SDS011;11050;52.222;20.916;2023-02-15T14:09:24;55.00;;;24.50;;
21777;SDS011;11050;52.222;20.916;2023-02-15T14:15:04;48.43;;;22.80;;
21777;SDS011;11050;52.222;20.916;2023-02-15T14:21:10;51.00;;;23.83;;
21777;SDS011;11050;52.222;20.916;2023-02-15T14:26:54;57.77;;;27.20;;
21777;SDS011;11050;52.222;20.916;2023-02-15T14:32:29;57.63;;;27.50;;
21777;SDS011;11050;52.222;20.916;2023-02-15T14:35:04;55.33;;;26.53;;
21777;SDS011;11050;52.222;20.916;2023-02-15T14:43:38;59.63;;;27.13;;
21777;SDS011;11050;52.222;20.916;2023-02-15T14:46:38;53.77;;;24.73;;
21777;SDS011;11050;52.222;20.916;2023-02-15T14:49:32;61.90;;;26.87;;
21777;SDS011;11050;52.222;20.916;2023-02-15T14:52:03;68.73;;;28.77;;
21777;SDS011;11050;52.222;20.916;2023-02-15T15:02:25;55.53;;;26.17;;
21777;SDS011;11050;52.222;20.916;2023-02-15T15:08:17;57.70;;;27.47;;
21777;SDS011;11050;52.222;20.916;2023-02-15T15:11:36;57.70;;;25.57;;
21777;SDS011;11050;52.222;20.916;2023-02-15T15:14:08;56.77;;;24.57;;
21777;SDS011;11050;52.222;20.916;2023-02-15T15:19:01;64.47;;;26.90;;
21777;SDS011;11050;52.222;20.916;2023-02-15T15:27:45;53.70;;;23.23;;
21777;SDS011;11050;52.222;20.916;2023-02-15T15:38:55;51.00;;;21.63;;
21777;SDS011;11050;52.222;20.916;2023-02-15T15:44:19;45.00;;;21.33;;
21777;SDS011;11050;52.222;20.916;2023-02-15T15:50:16;50.57;;;22.70;;
21777;SDS011;11050;52.222;20.916;2023-02-15T15:53:06;49.73;;;22.43;;
21777;SDS011;11050;52.222;20.916;2023-02-15T15:55:37;48.03;;;21.37;;
21777;SDS011;11050;52.222;20.916;2023-02-15T15:58:05;50.83;;;22.07;;
21777;SDS011;11050;52.222;20.916;2023-02-15T16:03:14;52.27;;;23.37;;
21777;SDS011;11050;52.222;20.916;2023-02-15T16:05:44;54.07;;;23.57;;
21777;SDS011;11050;52.222;20.916;2023-02-15T16:08:10;53.27;;;22.43;;
21777;SDS011;11050;52.222;20.916;2023-02-15T16:10:36;53.40;;;22.83;;
21777;SDS011;11050;52.222;20.916;2023-02-15T16:13:04;51.77;;;21.90;;
21777;SDS011;11050;52.222;20.916;2023-02-15T16:18:15;48.33;;;21.33;;
21777;SDS011;11050;52.222;20.916;2023-02-15T16:20:51;45.60;;;19.80;;
21777;SDS011;11050;52.222;20.916;2023-02-15T16:29:14;53.50;;;22.17;;
21777;SDS011;11050;52.222;20.916;2023-02-15T16:34:39;53.53;;;22.30;;
21777;SDS011;11050;52.222;20.916;2023-02-15T16:37:27;53.70;;;22.60;;
21777;SDS011;11050;52.222;20.916;2023-02-15T16:39:58;55.27;;;23.57;;
21777;SDS011;11050;52.222;20.916;2023-02-15T16:42:24;54.60;;;24.43;;
21777;SDS011;11050;52.222;20.916;2023-02-15T16:45:01;51.27;;;23.20;;
21777;SDS011;11050;52.222;20.916;2023-02-15T16:47:40;51.87;;;23.37;;
21777;SDS011;11050;52.222;20.916;2023-02-15T16:50:28;55.23;;;23.90;;
21777;SDS011;11050;52.222;20.916;2023-02-15T16:52:59;50.00;;;22.20;;
21777;SDS011;11050;52.222;20.916;2023-02-15T16:55:33;47.60;;;22.37;;
21777;SDS011;11050;52.222;20.916;2023-02-15T16:58:04;51.23;;;22.93;;
21777;SDS011;11050;52.222;20.916;2023-02-15T17:00:36;47.87;;;21.20;;
21777;SDS011;11050;52.222;20.916;2023-02-15T17:03:12;52.53;;;22.50;;
21777;SDS011;11050;52.222;20.916;2023-02-15T17:05:53;47.73;;;21.70;;
21777;SDS011;11050;52.222;20.916;2023-02-15T17:08:25;48.73;;;22.00;;
21777;SDS011;11050;52.222;20.916;2023-02-15T17:13:24;46.80;;;22.00;;
21777;SDS011;11050;52.222;20.916;2023-02-15T17:18:24;48.30;;;22.33;;
21777;SDS011;11050;52.222;20.916;2023-02-15T17:20:56;44.97;;;21.23;;
21777;SDS011;11050;52.222;20.916;2023-02-15T17:23:34;47.23;;;22.63;;
21777;SDS011;11050;52.222;20.916;2023-02-15T17:26:14;52.70;;;23.20;;
21777;SDS011;11050;52.222;20.916;2023-02-15T17:28:49;51.73;;;23.00;;
21777;SDS011;11050;52.222;20.916;2023-02-15T17:31:34;47.07;;;22.47;;
21777;SDS011;11050;52.222;20.916;2023-02-15T17:34:00;51.43;;;23.23;;
21777;SDS011;11050;52.222;20.916;2023-02-15T17:36:27;54.53;;;23.97;;
21777;SDS011;11050;52.222;20.916;2023-02-15T17:39:38;56.20;;;24.60;;
21777;SDS011;11050;52.222;20.916;2023-02-15T17:41:47;50.13;;;23.87;;
21777;SDS011;11050;52.222;20.916;2023-02-15T17:44:12;53.83;;;25.40;;
21777;SDS011;11050;52.222;20.916;2023-02-15T17:46:40;61.53;;;26.23;;
21777;SDS011;11050;52.222;20.916;2023-02-15T17:49:10;54.37;;;25.50;;
21777;SDS011;11050;52.222;20.916;2023-02-15T17:51:48;46.23;;;21.70;;
21777;SDS011;11050;52.222;20.916;2023-02-15T17:54:14;49.23;;;23.63;;
21777;SDS011;11050;52.222;20.916;2023-02-15T17:56:58;57.30;;;25.10;;
21777;SDS011;11050;52.222;20.916;2023-02-15T17:59:29;51.73;;;22.60;;
21777;SDS011;11050;52.222;20.916;2023-02-15T18:01:55;52.57;;;23.13;;
21777;SDS011;11050;52.222;20.916;2023-02-15T18:04:40;52.83;;;22.90;;
21777;SDS011;11050;52.222;20.916;2023-02-15T18:07:25;58.73;;;24.90;;
21777;SDS011;11050;52.222;20.916;2023-02-15T18:10:13;47.07;;;23.20;;
21777;SDS011;11050;52.222;20.916;2023-02-15T18:13:02;49.13;;;23.30;;
21777;SDS011;11050;52.222;20.916;2023-02-15T18:15:28;50.90;;;22.57;;
21777;SDS011;11050;52.222;20.916;2023-02-15T18:17:54;53.37;;;23.97;;
21777;SDS011;11050;52.222;20.916;2023-02-15T18:20:24;44.50;;;21.10;;